createdAt,value
2016-06-16T00:00:12.740Z,48.37
2016-06-16T00:01:12.744Z,48.25
2016-06-16T00:02:12.747Z,48.37
2016-06-16T00:03:12.750Z,48.47
2016-06-16T00:04:12.752Z,48.35
2016-06-16T00:05:12.755Z,48.37
2016-06-16T00:06:12.915Z,48.28
2016-06-16T00:07:12.762Z,48.25
2016-06-16T00:08:12.781Z,48.44
2016-06-16T00:09:12.784Z,48.37
2016-06-16T00:10:12.787Z,48.37
2016-06-16T00:11:12.727Z,48.28
2016-06-16T00:12:12.808Z,48.37
2016-06-16T00:13:12.812Z,48.57
2016-06-16T00:14:12.814Z,48.47
2016-06-16T00:15:12.817Z,48.35
2016-06-16T00:16:12.868Z,48.28
2016-06-16T00:17:12.824Z,48.18
2016-06-16T00:18:12.826Z,48.28
2016-06-16T00:19:12.846Z,48.47
2016-06-16T00:20:12.849Z,48.28
2016-06-16T00:21:12.852Z,48.44
2016-06-16T00:22:12.871Z,48.28
2016-06-16T00:23:12.874Z,48.25
2016-06-16T00:24:12.877Z,48.25
2016-06-16T00:25:12.880Z,48.25
2016-06-16T00:26:12.883Z,48.44
2016-06-16T00:27:12.886Z,48.35
2016-06-16T00:28:12.904Z,48.44
2016-06-16T00:29:12.907Z,48.16
2016-06-16T00:30:12.943Z,48.37
2016-06-16T00:31:12.914Z,48.16
2016-06-16T00:32:12.964Z,48.25
2016-06-16T00:33:12.919Z,48.37
2016-06-16T00:34:12.939Z,48.47
2016-06-16T00:35:12.942Z,48.44
2016-06-16T00:36:12.945Z,48.37
2016-06-16T00:37:12.948Z,48.25
2016-06-16T00:38:12.951Z,48.25
2016-06-16T00:39:12.954Z,48.18
2016-06-16T00:40:12.973Z,48.06
2016-06-16T00:41:12.977Z,48.25
2016-06-16T00:42:12.979Z,48.44
2016-06-16T00:43:12.982Z,48.06
2016-06-16T00:44:12.986Z,48.16
2016-06-16T00:45:12.989Z,48.16
2016-06-16T00:46:13.006Z,48.28
2016-06-16T00:47:13.010Z,48.44
2016-06-16T00:48:13.029Z,48.25
2016-06-16T00:49:13.016Z,48.37
2016-06-16T00:50:13.035Z,48.44
2016-06-16T00:51:13.038Z,48.44
2016-06-16T00:52:14.150Z,48.06
2016-06-16T00:53:13.044Z,48.44
2016-06-16T00:54:13.047Z,48.44
2016-06-16T00:55:13.051Z,48.35
2016-06-16T00:56:13.615Z,48.44
2016-06-16T00:57:13.072Z,48.44
2016-06-16T00:58:12.919Z,48.44
2016-06-16T00:59:13.078Z,48.25
2016-06-16T01:00:13.080Z,48.35
2016-06-16T01:01:13.084Z,48.25
2016-06-16T01:02:13.119Z,48.06
2016-06-16T01:03:14.106Z,48.35
2016-06-16T01:04:13.109Z,48.25
2016-06-16T01:05:13.112Z,48.25
2016-06-16T01:06:12.959Z,48.16
2016-06-16T01:07:13.134Z,48.35
2016-06-16T01:08:13.138Z,48.25
2016-06-16T01:09:12.983Z,48.25
2016-06-16T01:10:12.987Z,48.54
2016-06-16T01:11:13.022Z,48.44
2016-06-16T01:12:14.181Z,47.96
2016-06-16T01:13:13.167Z,48.16
2016-06-16T01:14:13.874Z,48.25
2016-06-16T01:15:13.174Z,48.35
2016-06-16T01:16:13.177Z,48.35
2016-06-16T01:17:13.024Z,48.25
2016-06-16T01:18:13.199Z,48.44
2016-06-16T01:19:13.202Z,48.44
2016-06-16T01:20:13.206Z,48.25
2016-06-16T01:21:13.208Z,48.35
2016-06-16T01:22:13.211Z,48.44
2016-06-16T01:23:13.933Z,47.96
2016-06-16T01:24:13.233Z,48.06
2016-06-16T01:25:13.627Z,48.25
2016-06-16T01:26:13.755Z,48.44
2016-06-16T01:27:13.243Z,48.25
2016-06-16T01:28:13.260Z,48.25
2016-06-16T01:29:13.264Z,48.25
2016-06-16T01:30:13.267Z,48.16
2016-06-16T01:31:13.286Z,48.06
2016-06-16T01:32:13.320Z,48.25
2016-06-16T01:33:13.276Z,48.35
2016-06-16T01:34:14.420Z,48.35
2016-06-16T01:35:13.282Z,48.35
2016-06-16T01:36:13.348Z,48.25
2016-06-16T01:37:13.304Z,48.06
2016-06-16T01:38:13.308Z,48.44
2016-06-16T01:39:13.325Z,48.25
2016-06-16T01:40:13.313Z,48.25
2016-06-16T01:41:13.332Z,48.44
2016-06-16T01:42:13.335Z,48.35
2016-06-16T01:43:13.338Z,48.16
2016-06-16T01:44:13.357Z,48.44
2016-06-16T01:45:14.454Z,48.35
2016-06-16T01:46:13.207Z,48.25
2016-06-16T01:47:13.413Z,48.25
2016-06-16T01:48:13.369Z,48.44
2016-06-16T01:49:13.373Z,48.44
2016-06-16T01:50:13.375Z,48.25
2016-06-16T01:51:13.378Z,48.35
2016-06-16T01:52:13.398Z,48.16
2016-06-16T01:53:13.416Z,48.25
2016-06-16T01:54:13.403Z,48.35
2016-06-16T01:55:13.406Z,48.44
2016-06-16T01:56:14.332Z,48.35
2016-06-16T01:57:13.475Z,48.44
2016-06-16T01:58:13.416Z,48.35
2016-06-16T01:59:13.434Z,48.25
2016-06-16T02:00:13.437Z,48.06
2016-06-16T02:01:13.440Z,47.96
2016-06-16T02:02:13.460Z,48.06
2016-06-16T02:03:13.446Z,47.96
2016-06-16T02:04:13.466Z,47.96
2016-06-16T02:05:13.468Z,48.06
2016-06-16T02:06:13.472Z,47.96
2016-06-16T02:07:14.380Z,48.16
2016-06-16T02:08:13.494Z,47.96
2016-06-16T02:09:13.497Z,47.87
2016-06-16T02:10:13.500Z,48.16
2016-06-16T02:11:13.362Z,47.96
2016-06-16T02:12:13.506Z,48.06
2016-06-16T02:13:13.509Z,47.96
2016-06-16T02:14:13.512Z,48.06
2016-06-16T02:15:13.530Z,48.25
2016-06-16T02:16:13.534Z,48.16
2016-06-16T02:17:13.536Z,48.06
2016-06-16T02:18:14.289Z,48.25
2016-06-16T02:19:13.543Z,47.96
2016-06-16T02:20:13.406Z,47.96
2016-06-16T02:21:13.564Z,47.96
2016-06-16T02:22:13.599Z,48.06
2016-06-16T02:23:13.571Z,47.96
2016-06-16T02:24:13.589Z,47.96
2016-06-16T02:25:13.577Z,47.96
2016-06-16T02:26:14.189Z,47.87
2016-06-16T02:27:13.598Z,48.06
2016-06-16T02:28:13.602Z,48.16
2016-06-16T02:29:14.354Z,47.96
2016-06-16T02:30:13.607Z,48.06
2016-06-16T02:31:13.610Z,48.06
2016-06-16T02:32:13.630Z,48.06
2016-06-16T02:33:13.632Z,48.06
2016-06-16T02:34:13.636Z,48.35
2016-06-16T02:35:13.639Z,48.44
2016-06-16T02:36:13.642Z,48.06
2016-06-16T02:37:13.645Z,48.35
2016-06-16T02:38:13.664Z,48.25
2016-06-16T02:39:13.667Z,48.06
2016-06-16T02:40:14.670Z,48.06
2016-06-16T02:41:13.673Z,48.16
2016-06-16T02:42:13.676Z,47.96
2016-06-16T02:43:13.694Z,47.77
2016-06-16T02:44:13.698Z,48.44
2016-06-16T02:45:13.701Z,47.96
2016-06-16T02:46:13.703Z,48.25
2016-06-16T02:47:13.706Z,47.77
2016-06-16T02:48:13.726Z,47.87
2016-06-16T02:49:13.713Z,48.44
2016-06-16T02:50:13.731Z,48.35
2016-06-16T02:51:14.344Z,48.06
2016-06-16T02:52:13.738Z,48.25
2016-06-16T02:53:13.741Z,47.96
2016-06-16T02:54:13.744Z,48.35
2016-06-16T02:55:14.873Z,48.06
2016-06-16T02:56:13.766Z,47.96
2016-06-16T02:57:13.769Z,47.96
2016-06-16T02:58:13.773Z,47.77
2016-06-16T02:59:13.776Z,47.96
2016-06-16T03:00:13.779Z,47.96
2016-06-16T03:01:13.797Z,47.96
2016-06-16T03:02:14.300Z,48.25
2016-06-16T03:03:13.803Z,48.06
2016-06-16T03:04:13.806Z,48.25
2016-06-16T03:05:13.809Z,47.67
2016-06-16T03:06:14.922Z,48.16
2016-06-16T03:07:13.676Z,48.06
2016-06-16T03:08:13.834Z,48.06
2016-06-16T03:09:13.837Z,47.96
2016-06-16T03:10:13.840Z,48.44
2016-06-16T03:11:14.000Z,48.06
2016-06-16T03:12:14.550Z,48.25
2016-06-16T03:13:14.052Z,48.06
2016-06-16T03:14:13.883Z,47.96
2016-06-16T03:15:14.840Z,48.16
2016-06-16T03:16:13.890Z,48.06
2016-06-16T03:17:14.706Z,47.87
2016-06-16T03:18:13.912Z,47.87
2016-06-16T03:19:13.899Z,48.06
2016-06-16T03:20:13.902Z,48.06
2016-06-16T03:21:13.921Z,48.06
2016-06-16T03:22:13.908Z,48.54
2016-06-16T03:23:13.927Z,47.96
2016-06-16T03:24:13.978Z,48.35
2016-06-16T03:25:13.933Z,47.87
2016-06-16T03:26:14.936Z,47.87
2016-06-16T03:27:13.955Z,48.44
2016-06-16T03:28:14.740Z,47.96
2016-06-16T03:29:13.945Z,48.16
2016-06-16T03:30:13.964Z,47.96
2016-06-16T03:31:13.967Z,48.06
2016-06-16T03:32:13.970Z,48.06
2016-06-16T03:33:13.973Z,48.06
2016-06-16T03:34:13.976Z,48.16
2016-06-16T03:35:13.979Z,48.25
2016-06-16T03:36:14.015Z,48.06
2016-06-16T03:37:14.798Z,47.77
2016-06-16T03:38:14.004Z,48.06
2016-06-16T03:39:14.460Z,47.96
2016-06-16T03:40:14.026Z,48.06
2016-06-16T03:41:14.639Z,47.96
2016-06-16T03:42:14.032Z,48.35
2016-06-16T03:43:14.035Z,48.06
2016-06-16T03:44:14.039Z,47.87
2016-06-16T03:45:14.056Z,48.16
2016-06-16T03:46:14.060Z,48.06
2016-06-16T03:47:14.063Z,47.96
2016-06-16T03:48:15.160Z,48.35
2016-06-16T03:49:14.069Z,48.06
2016-06-16T03:50:14.120Z,47.87
2016-06-16T03:51:14.075Z,48.06
2016-06-16T03:52:14.094Z,47.96
2016-06-16T03:53:14.097Z,48.25
2016-06-16T03:54:14.101Z,48.44
2016-06-16T03:55:14.103Z,48.06
2016-06-16T03:56:13.951Z,48.35
2016-06-16T03:57:14.235Z,47.96
2016-06-16T03:58:14.128Z,48.35
2016-06-16T03:59:15.022Z,47.94
2016-06-16T04:00:14.134Z,48.35
2016-06-16T04:01:14.137Z,48.44
2016-06-16T04:02:14.140Z,48.35
2016-06-16T04:03:14.144Z,48.35
2016-06-16T04:04:14.162Z,48.06
2016-06-16T04:05:14.165Z,48.06
2016-06-16T04:06:14.168Z,47.96
2016-06-16T04:07:14.172Z,47.96
2016-06-16T04:08:14.190Z,48.44
2016-06-16T04:09:14.177Z,48.25
2016-06-16T04:10:15.040Z,48.35
2016-06-16T04:11:14.200Z,47.87
2016-06-16T04:12:14.390Z,48.44
2016-06-16T04:13:14.205Z,48.44
2016-06-16T04:14:14.240Z,48.25
2016-06-16T04:15:14.212Z,47.87
2016-06-16T04:16:14.249Z,48.25
2016-06-16T04:17:14.292Z,48.06
2016-06-16T04:18:14.334Z,48.06
2016-06-16T04:19:14.377Z,48.06
2016-06-16T04:20:14.420Z,48.25
2016-06-16T04:21:14.968Z,48.35
2016-06-16T04:22:14.532Z,48.25
2016-06-16T04:23:14.549Z,47.96
2016-06-16T04:24:14.364Z,48.16
2016-06-16T04:25:14.537Z,47.96
2016-06-16T04:26:14.550Z,47.77
2016-06-16T04:27:14.667Z,48.44
2016-06-16T04:28:14.582Z,48.44
2016-06-16T04:29:14.605Z,48.06
2016-06-16T04:30:14.613Z,48.35
2016-06-16T04:31:14.605Z,47.67
2016-06-16T04:32:15.375Z,48.06
2016-06-16T04:33:14.630Z,47.96
2016-06-16T04:34:14.635Z,47.87
2016-06-16T04:35:14.639Z,47.67
2016-06-16T04:36:14.644Z,48.06
2016-06-16T04:37:14.648Z,48.06
2016-06-16T04:38:14.652Z,48.16
2016-06-16T04:39:14.719Z,48.06
2016-06-16T04:40:14.676Z,48.06
2016-06-16T04:41:14.679Z,48.16
2016-06-16T04:42:14.698Z,48.25
2016-06-16T04:43:15.139Z,47.96
2016-06-16T04:44:14.705Z,48.16
2016-06-16T04:45:14.708Z,47.67
2016-06-16T04:46:14.711Z,47.38
2016-06-16T04:47:14.730Z,47.48
2016-06-16T04:48:14.734Z,47.67
2016-06-16T04:49:14.736Z,47.38
2016-06-16T04:50:14.756Z,47.58
2016-06-16T04:51:14.743Z,47.87
2016-06-16T04:52:14.746Z,48.08
2016-06-16T04:53:14.765Z,47.41
2016-06-16T04:54:15.065Z,47.02
2016-06-16T04:55:14.771Z,47.12
2016-06-16T04:56:14.774Z,46.64
2016-06-16T04:57:15.340Z,46.54
2016-06-16T04:58:14.795Z,47.02
2016-06-16T04:59:14.798Z,46.34
2016-06-16T05:00:14.801Z,46.17
2016-06-16T05:01:14.804Z,46.06
2016-06-16T05:02:14.807Z,46.27
2016-06-16T05:03:14.671Z,46.17
2016-06-16T05:04:14.830Z,46.17
2016-06-16T05:05:14.832Z,46.56
2016-06-16T05:06:14.836Z,46.37
2016-06-16T05:07:15.636Z,46.08
2016-06-16T05:08:14.842Z,46.08
2016-06-16T05:09:14.861Z,45.59
2016-06-16T05:10:14.864Z,45.98
2016-06-16T05:11:14.867Z,45.89
2016-06-16T05:12:14.886Z,45.59
2016-06-16T05:13:14.889Z,45.11
2016-06-16T05:14:14.892Z,45.31
2016-06-16T05:15:14.895Z,45.5
2016-06-16T05:16:14.913Z,45.62
2016-06-16T05:17:14.917Z,45.5
2016-06-16T05:18:16.014Z,45.14
2016-06-16T05:19:14.938Z,45.23
2016-06-16T05:20:14.957Z,45.14
2016-06-16T05:21:14.944Z,44.75
2016-06-16T05:22:14.947Z,44.94
2016-06-16T05:23:14.966Z,45.04
2016-06-16T05:24:14.969Z,44.84
2016-06-16T05:25:14.972Z,45.04
2016-06-16T05:26:14.992Z,44.84
2016-06-16T05:27:14.995Z,44.84
2016-06-16T05:28:14.998Z,44.84
2016-06-16T05:29:16.062Z,44.77
2016-06-16T05:30:15.018Z,44.48
2016-06-16T05:31:15.022Z,44.19
2016-06-16T05:32:14.885Z,44.29
2016-06-16T05:33:15.044Z,44.09
2016-06-16T05:34:15.047Z,44.29
2016-06-16T05:35:14.909Z,44.29
2016-06-16T05:36:15.069Z,44.29
2016-06-16T05:37:15.072Z,43.8
2016-06-16T05:38:15.090Z,43.9
2016-06-16T05:39:15.093Z,44.19
2016-06-16T05:40:16.252Z,43.61
2016-06-16T05:41:15.115Z,43.34
2016-06-16T05:42:15.119Z,43.54
2016-06-16T05:43:15.122Z,43.15
2016-06-16T05:44:15.140Z,43.05
2016-06-16T05:45:15.143Z,43.05
2016-06-16T05:46:15.162Z,43.15
2016-06-16T05:47:15.164Z,43.15
2016-06-16T05:48:15.168Z,42.86
2016-06-16T05:49:15.187Z,42.66
2016-06-16T05:50:15.190Z,42.47
2016-06-16T05:51:15.630Z,42.76
2016-06-16T05:52:15.211Z,43.07
2016-06-16T05:53:15.230Z,42.49
2016-06-16T05:54:15.234Z,42.49
2016-06-16T05:55:29.346Z,42.57
2016-06-16T05:56:15.256Z,42.88
2016-06-16T05:57:15.259Z,42.3
2016-06-16T05:58:15.262Z,42.49
2016-06-16T05:59:15.279Z,42.49
2016-06-16T06:00:15.282Z,42.4
2016-06-16T06:01:15.302Z,42.59
2016-06-16T06:02:15.899Z,42.4
2016-06-16T06:03:15.308Z,42.4
2016-06-16T06:04:15.326Z,42.49
2016-06-16T06:05:15.345Z,42.49
2016-06-16T06:06:15.348Z,42.49
2016-06-16T06:07:15.368Z,42.4
2016-06-16T06:08:15.371Z,42.2
2016-06-16T06:09:15.374Z,42.13
2016-06-16T06:10:15.392Z,41.45
2016-06-16T06:11:15.395Z,42.03
2016-06-16T06:12:15.413Z,41.82
2016-06-16T06:13:16.025Z,41.74
2016-06-16T06:14:15.436Z,41.55
2016-06-16T06:15:15.439Z,41.93
2016-06-16T06:16:15.442Z,41.55
2016-06-16T06:17:15.445Z,41.83
2016-06-16T06:18:15.463Z,41.64
2016-06-16T06:19:15.483Z,41.74
2016-06-16T06:20:15.485Z,41.64
2016-06-16T06:21:15.504Z,41.06
2016-06-16T06:22:15.506Z,41.74
2016-06-16T06:23:15.526Z,41.74
2016-06-16T06:24:16.684Z,41.35
2016-06-16T06:25:15.532Z,41.45
2016-06-16T06:26:15.551Z,41.45
2016-06-16T06:27:15.554Z,41.45
2016-06-16T06:28:15.572Z,41.16
2016-06-16T06:29:15.575Z,40.67
2016-06-16T06:30:15.578Z,41.16
2016-06-16T06:31:15.597Z,41.35
2016-06-16T06:32:15.600Z,41.25
2016-06-16T06:33:15.619Z,41.27
2016-06-16T06:34:15.623Z,40.99
2016-06-16T06:35:16.735Z,41.08
2016-06-16T06:36:15.644Z,40.79
2016-06-16T06:37:15.646Z,40.4
2016-06-16T06:38:15.665Z,40.21
2016-06-16T06:39:15.669Z,40.31
2016-06-16T06:40:15.687Z,40.11
2016-06-16T06:41:15.706Z,40.11
2016-06-16T06:42:15.725Z,40.4
2016-06-16T06:43:15.728Z,39.92
2016-06-16T06:44:15.731Z,39.72
2016-06-16T06:45:15.734Z,39.92
2016-06-16T06:46:16.752Z,39.82
2016-06-16T06:47:15.771Z,39.74
2016-06-16T06:48:15.775Z,39.84
2016-06-16T06:49:15.794Z,40.13
2016-06-16T06:50:15.797Z,39.92
2016-06-16T06:51:15.799Z,40.4
2016-06-16T06:52:15.818Z,40.31
2016-06-16T06:53:15.820Z,40.21
2016-06-16T06:54:15.840Z,40.69
2016-06-16T06:55:16.952Z,40.59
2016-06-16T06:56:15.861Z,40.99
2016-06-16T06:57:16.521Z,41.37
2016-06-16T06:58:15.883Z,41.25
2016-06-16T06:59:15.886Z,41.45
2016-06-16T07:00:15.905Z,41.25
2016-06-16T07:01:15.908Z,41.06
2016-06-16T07:02:15.912Z,41.25
2016-06-16T07:03:15.930Z,40.77
2016-06-16T07:04:15.932Z,41.16
2016-06-16T07:05:15.795Z,40.28
2016-06-16T07:06:16.799Z,40.31
2016-06-16T07:07:15.958Z,39.92
2016-06-16T07:08:16.414Z,40.01
2016-06-16T07:09:15.980Z,40.5
2016-06-16T07:10:15.998Z,40.4
2016-06-16T07:11:16.001Z,40.5
2016-06-16T07:12:16.082Z,40.01
2016-06-16T07:13:16.023Z,39.92
2016-06-16T07:14:16.041Z,39.82
2016-06-16T07:15:16.045Z,39.82
2016-06-16T07:16:16.048Z,39.82
2016-06-16T07:17:16.973Z,40.11
2016-06-16T07:18:16.085Z,40.21
2016-06-16T07:19:16.589Z,40.5
2016-06-16T07:20:16.092Z,40.79
2016-06-16T07:21:16.110Z,40.96
2016-06-16T07:22:16.113Z,40.86
2016-06-16T07:23:16.132Z,41.06
2016-06-16T07:24:16.152Z,41.06
2016-06-16T07:25:16.200Z,40.67
2016-06-16T07:26:16.157Z,41.27
2016-06-16T07:27:16.253Z,41.16
2016-06-16T07:28:16.928Z,41.06
2016-06-16T07:29:16.182Z,41.45
2016-06-16T07:30:16.544Z,41.06
2016-06-16T07:31:16.203Z,41.55
2016-06-16T07:32:35.769Z,41.45
2016-06-16T07:33:16.222Z,41.45
2016-06-16T07:34:16.070Z,41.16
2016-06-16T07:48:37.583Z,41.16
2016-06-16T07:48:37.646Z,41.45
2016-06-16T07:48:50.880Z,41.91
2016-06-16T07:49:50.743Z,41.72
2016-06-16T07:50:50.902Z,42.1
2016-06-16T07:51:50.952Z,42.4
2016-06-16T07:52:50.923Z,42.59
2016-06-16T07:53:50.926Z,41.82
2016-06-16T07:54:50.946Z,42.1
2016-06-16T07:55:50.949Z,42.49
2016-06-16T07:56:50.968Z,42.4
2016-06-16T07:57:50.954Z,42.88
2016-06-16T07:58:51.691Z,42.4
2016-06-16T07:59:50.977Z,42.4
2016-06-16T08:00:50.980Z,42.4
2016-06-16T08:01:50.998Z,42.37
2016-06-16T08:02:51.001Z,42.76
2016-06-16T08:03:51.004Z,42.49
2016-06-16T08:04:51.007Z,42.08
2016-06-16T08:05:51.026Z,42.49
2016-06-16T08:06:51.030Z,42.47
2016-06-16T08:07:51.033Z,42.78
2016-06-16T08:08:51.052Z,42.08
2016-06-16T08:09:51.055Z,42.96
2016-06-16T08:10:51.058Z,42.68
2016-06-16T08:11:51.075Z,42.3
2016-06-16T08:12:51.079Z,42.2
2016-06-16T08:13:51.082Z,42.2
2016-06-16T08:14:51.084Z,42.3
2016-06-16T08:15:51.104Z,42.3
2016-06-16T08:16:50.951Z,42.49
2016-06-16T08:17:50.954Z,42.68
2016-06-16T08:18:52.176Z,42.4
2016-06-16T08:19:51.131Z,42.66
2016-06-16T08:20:50.978Z,42.66
2016-06-16T08:21:51.138Z,42.68
2016-06-16T08:22:51.156Z,42.76
2016-06-16T08:23:51.160Z,42.18
2016-06-16T08:24:51.162Z,42.47
2016-06-16T08:25:51.165Z,42.47
2016-06-16T08:26:51.184Z,42.47
2016-06-16T08:27:51.188Z,42.47
2016-06-16T08:28:51.206Z,42.47
2016-06-16T08:29:52.256Z,42.86
2016-06-16T08:30:51.056Z,42.57
2016-06-16T08:31:51.215Z,42.47
2016-06-16T08:32:51.234Z,42.57
2016-06-16T08:33:51.081Z,42.18
2016-06-16T08:34:51.257Z,42.18
2016-06-16T08:35:51.244Z,42.76
2016-06-16T08:36:51.263Z,42.59
2016-06-16T08:37:51.265Z,42.28
2016-06-16T08:38:51.269Z,42.28
2016-06-16T08:39:51.272Z,42.66
2016-06-16T08:40:52.400Z,42.76
2016-06-16T08:41:51.340Z,42.76
2016-06-16T08:42:51.360Z,42.76
2016-06-16T08:43:51.316Z,42.76
2016-06-16T08:44:51.319Z,42.47
2016-06-16T08:45:51.322Z,42.57
2016-06-16T08:46:51.340Z,42.37
2016-06-16T08:47:51.342Z,42.57
2016-06-16T08:48:16.471Z,42.86
2016-06-16T08:48:29.253Z,42.37
2016-06-16T08:49:29.271Z,42.37
2016-06-16T08:50:29.291Z,42.28
2016-06-16T08:51:30.371Z,42.47
2016-06-16T08:52:29.280Z,42.18
2016-06-16T08:53:29.300Z,42.86
2016-06-16T08:54:29.303Z,42.28
2016-06-16T08:55:29.306Z,42.47
2016-06-16T08:56:29.324Z,42.28
2016-06-16T08:57:29.171Z,42.57
2016-06-16T08:58:29.330Z,42.96
2016-06-16T08:59:29.349Z,42.28
2016-06-16T09:00:29.352Z,42.18
2016-06-16T09:01:29.355Z,40.44
2016-06-16T09:02:30.483Z,41.66
2016-06-16T09:03:29.205Z,42.41
2016-06-16T09:04:29.364Z,44.12
2016-06-16T09:05:29.399Z,44.49
2016-06-16T09:06:29.386Z,43.81
2016-06-16T09:07:29.389Z,44.29
2016-06-16T09:08:29.392Z,45.04
2016-06-16T09:09:29.240Z,44.59
2016-06-16T09:10:29.399Z,43.06
2016-06-16T09:11:29.402Z,43.16
2016-06-16T09:12:29.404Z,43.16
2016-06-16T09:13:29.408Z,43.74
2016-06-16T09:14:29.411Z,41.94
2016-06-16T09:15:29.429Z,42.72
2016-06-16T09:16:29.417Z,43.52
2016-06-16T09:17:29.420Z,43.43
2016-06-16T09:18:29.423Z,44.01
2016-06-16T09:19:29.427Z,45.62
2016-06-16T09:20:29.288Z,44.29
2016-06-16T09:21:29.339Z,43.74
2016-06-16T09:22:29.450Z,42.6
2016-06-16T09:23:29.453Z,42.31
2016-06-16T09:24:29.301Z,42.89
2016-06-16T09:25:29.476Z,42.7
2016-06-16T09:26:29.463Z,42.99
2016-06-16T09:27:29.310Z,42.99
2016-06-16T09:28:29.469Z,42.7
2016-06-16T09:29:29.472Z,42.5
2016-06-16T09:30:29.491Z,43.16
2016-06-16T09:31:29.478Z,42.7
2016-06-16T09:32:29.481Z,43.35
2016-06-16T09:33:29.501Z,42.41
2016-06-16T09:34:29.503Z,42.6
2016-06-16T09:35:29.351Z,42.21
2016-06-16T09:36:29.510Z,42.79
2016-06-16T09:37:29.357Z,42.58
2016-06-16T09:38:29.515Z,44.1
2016-06-16T09:39:29.519Z,42.97
2016-06-16T09:40:29.366Z,41.25
2016-06-16T09:41:29.525Z,41.83
2016-06-16T09:42:29.544Z,41.44
2016-06-16T09:43:29.547Z,41.25
2016-06-16T09:44:29.550Z,42.41
2016-06-16T09:45:29.600Z,42.7
2016-06-16T09:46:29.557Z,42.21
2016-06-16T09:47:29.402Z,43.43
2016-06-16T09:48:29.562Z,44.15
2016-06-16T09:49:29.566Z,44.25
2016-06-16T09:50:29.568Z,43.77
2016-06-16T09:51:29.572Z,43.77
2016-06-16T09:52:29.575Z,43.19
2016-06-16T09:53:29.578Z,43.1
2016-06-16T09:54:29.580Z,43.77
2016-06-16T09:55:29.584Z,42.52
2016-06-16T09:56:29.587Z,42.8
2016-06-16T09:57:29.590Z,43.67
2016-06-16T09:58:29.593Z,43.87
2016-06-16T09:59:29.424Z,42.9
2016-06-16T10:00:29.583Z,42.63
2016-06-16T10:01:29.602Z,42.63
2016-06-16T10:02:29.590Z,43.77
2016-06-16T10:03:29.593Z,44.13
2016-06-16T10:04:29.440Z,44.15
2016-06-16T10:05:31.583Z,44.93
2016-06-16T10:06:29.446Z,44.13
2016-06-16T10:07:30.229Z,42.35
2016-06-16T10:08:29.452Z,41.02
2016-06-16T10:09:29.611Z,41.3
2016-06-16T10:10:29.614Z,41.13
2016-06-16T10:11:29.617Z,40.96
2016-06-16T10:12:29.620Z,41.33
2016-06-16T10:13:29.639Z,40.77
2016-06-16T10:14:29.627Z,40.19
2016-06-16T10:15:29.614Z,40.09
2016-06-16T10:16:29.632Z,39.9
2016-06-16T10:17:29.636Z,39.99
2016-06-16T10:18:29.482Z,40.28
2016-06-16T10:19:29.642Z,40.19
2016-06-16T10:20:29.645Z,40.28
2016-06-16T10:21:29.648Z,39.92
2016-06-16T10:22:29.651Z,39.99
2016-06-16T10:23:29.654Z,40.19
2016-06-16T10:24:29.657Z,40.28
2016-06-16T10:25:29.676Z,40.3
2016-06-16T10:26:29.679Z,40.11
2016-06-16T10:27:29.526Z,40.01
2016-06-16T10:28:29.575Z,39.82
2016-06-16T10:29:29.736Z,40.3
2016-06-16T10:30:29.692Z,40.4
2016-06-16T10:31:29.710Z,39.92
2016-06-16T10:32:29.557Z,40.01
2016-06-16T10:33:29.716Z,39.7
2016-06-16T10:34:29.718Z,39.72
2016-06-16T10:35:29.722Z,40.47
2016-06-16T10:36:29.725Z,40.19
2016-06-16T10:37:29.744Z,39.99
2016-06-16T10:38:29.575Z,39.9
2016-06-16T10:39:29.734Z,40.09
2016-06-16T10:40:29.582Z,39.8
2016-06-16T10:41:29.600Z,40.11
2016-06-16T10:42:29.759Z,39.82
2016-06-16T10:43:29.778Z,39.82
2016-06-16T10:44:29.610Z,39.72
2016-06-16T10:45:29.785Z,40.01
2016-06-16T10:46:29.616Z,39.92
2016-06-16T10:47:29.791Z,40.01
2016-06-16T10:48:29.794Z,39.14
2016-06-16T10:49:29.640Z,40.19
2016-06-16T10:50:29.815Z,39.62
2016-06-16T10:51:29.662Z,39.72
2016-06-16T10:52:29.837Z,39.8
2016-06-16T10:53:29.824Z,39.62
2016-06-16T10:54:29.844Z,39.82
2016-06-16T10:55:29.846Z,40.11
2016-06-16T10:56:29.850Z,39.82
2016-06-16T10:57:29.884Z,39.22
2016-06-16T10:58:29.856Z,39.72
2016-06-16T10:59:29.858Z,39.24
2016-06-16T11:00:29.862Z,39.61
2016-06-16T11:01:29.865Z,39.9
2016-06-16T11:02:29.883Z,39.9
2016-06-16T11:03:29.887Z,39.43
2016-06-16T11:04:29.889Z,39.72
2016-06-16T11:07:47.071Z,39.72
2016-06-16T11:09:30.280Z,39.62
2016-06-16T11:09:45.968Z,39.53
2016-06-16T11:10:46.127Z,38.95
2016-06-16T11:11:46.114Z,39.53
2016-06-16T11:13:36.652Z,39.04
2016-06-16T11:13:49.230Z,39.04
2016-06-16T11:14:49.389Z,40.11
2016-06-16T11:15:49.377Z,38.48
2016-06-16T11:16:49.395Z,39.14
2016-06-16T11:17:49.398Z,39.14
2016-06-16T11:18:49.401Z,39.34
2016-06-16T11:19:49.404Z,39.62
2016-06-16T11:20:49.424Z,39.04
2016-06-16T11:21:49.255Z,40.2
2016-06-16T11:22:49.258Z,39.82
2016-06-16T11:23:49.480Z,39.43
2016-06-16T11:24:49.483Z,38.95
2016-06-16T11:25:49.439Z,38.76
2016-06-16T11:26:49.441Z,38.76
2016-06-16T11:27:49.304Z,38.95
2016-06-16T11:28:49.464Z,38.66
2016-06-16T11:29:49.451Z,39.04
2016-06-16T11:30:49.470Z,38.95
2016-06-16T11:31:49.473Z,39.24
2016-06-16T11:32:49.476Z,38.18
2016-06-16T11:33:49.480Z,38.66
2016-06-16T11:34:49.544Z,39.04
2016-06-16T11:35:49.501Z,38.29
2016-06-16T11:36:49.504Z,37.71
2016-06-16T11:37:49.506Z,37.12
2016-06-16T11:38:49.619Z,37.88
2016-06-16T11:39:49.513Z,38.28
2016-06-16T11:40:49.360Z,38.28
2016-06-16T11:41:49.535Z,37.7
2016-06-16T11:42:49.538Z,37.5
2016-06-16T11:43:49.541Z,37.6
2016-06-16T11:44:49.559Z,37.79
2016-06-16T11:45:49.562Z,36.82
2016-06-16T11:46:49.566Z,37.4
2016-06-16T11:47:49.568Z,36.82
2016-06-16T11:48:49.571Z,37.3
2016-06-16T11:49:49.887Z,37.42
2016-06-16T11:50:49.593Z,38.56
2016-06-16T11:51:49.613Z,38.1
2016-06-16T11:52:49.600Z,39.26
2016-06-16T11:53:49.634Z,39.26
2016-06-16T11:54:49.622Z,39.06
2016-06-16T11:55:49.625Z,39.36
2016-06-16T11:56:49.628Z,39.64
2016-06-16T11:57:49.631Z,39.84
2016-06-16T11:58:49.635Z,39.84
2016-06-16T11:59:49.653Z,39.64
2016-06-16T12:00:49.952Z,39.55
2016-06-16T12:01:49.503Z,40.13
2016-06-16T12:02:49.506Z,39.74
2016-06-16T12:03:49.524Z,39.74
2016-06-16T12:04:49.700Z,39.74
2016-06-16T12:05:49.531Z,39.84
2016-06-16T12:06:49.690Z,39.16
2016-06-16T12:07:49.724Z,38.58
2016-06-16T12:08:49.727Z,38.68
2016-06-16T12:09:49.730Z,38.68
2016-06-16T12:10:49.733Z,38.58
2016-06-16T12:11:50.174Z,38.29
2016-06-16T12:12:49.583Z,38.39
2016-06-16T12:13:49.789Z,39.06
2016-06-16T12:14:49.746Z,39.74
2016-06-16T12:15:49.749Z,39.36
2016-06-16T12:16:49.767Z,38.58
2016-06-16T12:17:49.880Z,38.48
2016-06-16T12:18:49.774Z,38.29
2016-06-16T12:19:49.792Z,38.58
2016-06-16T12:20:49.811Z,38.48
2016-06-16T12:21:49.783Z,38.29
2016-06-16T12:22:50.208Z,38.29
2016-06-16T12:23:49.804Z,38.29
2016-06-16T12:24:49.855Z,39.16
2016-06-16T12:25:49.810Z,38.2
2016-06-16T12:26:49.829Z,38.87
2016-06-16T12:27:49.832Z,39.16
2016-06-16T12:28:49.680Z,39.55
2016-06-16T12:29:49.839Z,39.84
2016-06-16T12:30:49.858Z,40.03
2016-06-16T12:31:49.908Z,39.36
2016-06-16T12:32:49.864Z,40.13
2016-06-16T12:33:50.367Z,40.13
2016-06-16T12:34:49.885Z,40.03
2016-06-16T12:35:49.935Z,40.03
2016-06-16T12:36:49.907Z,39.06
2016-06-16T12:37:49.895Z,38.97
2016-06-16T12:38:49.742Z,39.64
2016-06-16T12:39:49.900Z,40.13
2016-06-16T12:40:49.920Z,39.64
2016-06-16T12:41:49.922Z,40.13
2016-06-16T12:42:49.925Z,39.94
2016-06-16T12:43:49.945Z,40.03
2016-06-16T12:44:50.587Z,39.64
2016-06-16T12:45:49.951Z,39.36
2016-06-16T12:46:50.172Z,39.64
2016-06-16T12:47:49.800Z,40.13
2016-06-16T12:48:49.975Z,39.84
2016-06-16T12:49:49.994Z,38.97
2016-06-16T12:50:49.981Z,38.78
2016-06-16T12:51:49.985Z,39.06
2016-06-16T12:52:49.848Z,39.74
2016-06-16T12:58:57.225Z,38.48
2016-06-16T12:59:57.212Z,38.48
2016-06-16T13:00:57.215Z,38.29
2016-06-16T13:01:57.235Z,39.45
2016-06-16T13:02:57.238Z,38.85
2016-06-16T13:03:57.241Z,38.68
2016-06-16T13:04:57.244Z,38.39
2016-06-16T13:05:57.246Z,39.06
2016-06-16T13:06:57.969Z,39.16
2016-06-16T13:07:57.268Z,39.84
2016-06-16T13:08:57.678Z,39.74
2016-06-16T13:09:57.274Z,39.16
2016-06-16T13:10:57.278Z,39.64
2016-06-16T13:11:57.297Z,39.84